Flight Track Log - Related Links

Times and Time Zones

All times are in EDT time to prevent confusion due to time zone crossing. See the BWA301 flight status page for this flight to view local times or setup timezone preferences in your user account.

Time Position Orientation Groundspeed Altitude Reporting Facility
EDT Latitude Longitude Course Direction KTS MPH feet Rate Location/Type
Fri 09:57:00 AM 10.6052 -66.6972 90° East  Level Estimated
Fri 09:58:00 AM 10.6057 -66.6238 90° East  Level Estimated
Fri 09:59:00 AM 10.6061 -66.5505 90° East  Level Estimated
Fri 10:00:00 AM 10.6066 -66.4771 90° East  Level Estimated
Fri 10:01:00 AM 10.6070 -66.4038 90° East  Level Estimated
Fri 10:02:00 AM 10.6074 -66.3304 90° East  Level Estimated
Fri 10:03:00 AM 10.6078 -66.2571 90° East  Level Estimated
Fri 10:04:00 AM 10.6082 -66.1837 90° East  Level Estimated
Fri 10:05:00 AM 10.6086 -66.1104 90° East  Level Estimated
Fri 10:06:00 AM 10.6089 -66.0370 90° East  Level Estimated
Fri 10:07:00 AM 10.6092 -65.9637 90° East  Level Estimated
Fri 10:08:00 AM 10.6095 -65.8903 90° East  Level Estimated
Fri 10:09:00 AM 10.6098 -65.8170 90° East  Level Estimated
Fri 10:10:00 AM 10.6101 -65.7436 90° East  Level Estimated
Fri 10:11:00 AM 10.6103 -65.6703 90° East  Level Estimated
Fri 10:12:00 AM 10.6106 -65.5969 90° East  Level Estimated
Fri 10:13:00 AM 10.6108 -65.5236 90° East  Level Estimated
Fri 10:14:00 AM 10.6110 -65.4502 90° East  Level Estimated
Fri 10:15:00 AM 10.6112 -65.3769 90° East  Level Estimated
Fri 10:16:00 AM 10.6114 -65.3035 90° East  Level Estimated
Fri 10:17:00 AM 10.6115 -65.2302 90° East  Level Estimated
Fri 10:18:00 AM 10.6117 -65.1568 90° East  Level Estimated
Fri 10:19:00 AM 10.6118 -65.0835 90° East  Level Estimated
Fri 10:20:00 AM 10.6119 -65.0101 90° East  Level Estimated
Fri 10:21:00 AM 10.6120 -64.9367 90° East  Level Estimated
Fri 10:22:00 AM 10.6121 -64.8634 90° East  Level Estimated
Fri 10:23:00 AM 10.6121 -64.7900 90° East  Level Estimated
Fri 10:24:00 AM 10.6121 -64.7167 90° East  Level Estimated
Fri 10:25:00 AM 10.6122 -64.6433 90° East  Level Estimated
Fri 10:26:00 AM 10.6122 -64.5699 90° East  Level Estimated
Fri 10:27:00 AM 10.6121 -64.4966 90° East  Level Estimated
Fri 10:28:00 AM 10.6121 -64.4232 90° East  Level Estimated
Fri 10:29:00 AM 10.6121 -64.3499 90° East  Level Estimated
Fri 10:30:00 AM 10.6120 -64.2765 90° East  Level Estimated
Fri 10:31:00 AM 10.6119 -64.2031 90° East  Level Estimated
Fri 10:32:00 AM 10.6118 -64.1298 90° East  Level Estimated
Fri 10:33:00 AM 10.6117 -64.0564 90° East  Level Estimated
Fri 10:34:00 AM 10.6116 -63.9831 90° East  Level Estimated
Fri 10:35:00 AM 10.6114 -63.9097 90° East  Level Estimated
Fri 10:36:00 AM 10.6112 -63.8364 90° East  Level Estimated
Fri 10:37:00 AM 10.6111 -63.7630 90° East  Level Estimated
Fri 10:38:00 AM 10.6109 -63.6897 90° East  Level Estimated
Fri 10:39:00 AM 10.6106 -63.6163 90° East  Level Estimated
Fri 10:40:00 AM 10.6104 -63.5430 90° East  Level Estimated
Fri 10:41:00 AM 10.6102 -63.4696 90° East  Level Estimated
Fri 10:42:00 AM 10.6099 -63.3963 90° East  Level Estimated
Fri 10:43:00 AM 10.6096 -63.3229 90° East  Level Estimated
Fri 10:44:00 AM 10.6093 -63.2496 90° East  Level Estimated
Fri 10:45:00 AM 10.6090 -63.1762 90° East  Level Estimated
Fri 10:46:00 AM 10.6086 -63.1029 90° East  Level Estimated
Fri 10:47:00 AM 10.6083 -63.0295 90° East  Level Estimated
Fri 10:48:00 AM 10.6079 -62.9562 90° East  Level Estimated
Fri 10:49:00 AM 10.6075 -62.8828 90° East  Level Estimated
Fri 10:50:00 AM 10.6071 -62.8095 90° East  Level Estimated
Fri 10:51:00 AM 10.6067 -62.7361 90° East  Level Estimated
Fri 10:52:00 AM 10.6062 -62.6628 90° East  Level Estimated
Fri 10:53:00 AM 10.6058 -62.5894 90° East  Level Estimated
Fri 10:54:00 AM 10.6053 -62.5161 90° East  Level Estimated
Fri 10:55:00 AM 10.6048 -62.4427 90° East  Level Estimated
Fri 10:56:00 AM 10.6043 -62.3694 90° East  Level Estimated
Fri 10:57:00 AM 10.6038 -62.2960 90° East  Level Estimated
Fri 10:58:00 AM 10.6032 -62.2227 90° East  Level Estimated
Fri 10:59:00 AM 10.6027 -62.1493 90° East  Level Estimated
Fri 11:00:00 AM 10.6021 -62.0760 90° East  Level Estimated
Fri 11:01:00 AM 10.6015 -62.0026 90° East  Level Estimated
Fri 11:02:00 AM 10.6009 -61.9293 90° East  Level Estimated
Fri 11:03:00 AM 10.6003 -61.8559 90° East  Level Estimated
Fri 11:04:00 AM 10.5996 -61.7826 91° East  Level Estimated
Fri 11:05:00 AM 10.5990 -61.7092 91° East  Level Estimated
Fri 11:06:00 AM 10.5983 -61.6359 91° East  Level Estimated
Fri 11:07:00 AM 10.5976 -61.5625 91° East  Level Estimated
Fri 11:08:00 AM 10.5969 -61.4892 91° East  Level Estimated
Fri 11:09:00 AM 10.5962 -61.4158 91° East  Level Estimated
Fri 11:10:00 AM 10.5954 -61.3425 91° East  Level Estimated
Fri 11:11:00 AM 10.5954 -61.3372 91° East  Level Estimated
Fri 11:12:00 AM 10.5954 -61.3372 243° Southwest  Level Estimated
Fri 11:13:00 AM 10.5954 -61.3372 243° Southwest  Level Estimated
Fri 11:14:00 AM 10.5954 -61.3372 243° Southwest  Level Estimated
Fri 11:15:00 AM 10.5954 -61.3372 243° Southwest  Level Estimated
Fri 11:16:00 AM 10.5954 -61.3372 243° Southwest  Level Estimated
Fri 11:17:00 AM 10.5954 -61.3372 243° Southwest  Level Estimated
Fri 11:18:00 AM 10.5954 -61.3372 243° Southwest  Level Estimated
Fri 11:19:00 AM 10.5954 -61.3372 243° Southwest  Level Estimated
Fri 11:20:00 AM 10.5954 -61.3372 243° Southwest  Level Estimated
Fri 11:21:00 AM 10.5954 -61.3372 243° Southwest  Level Estimated
Fri 11:22:00 AM 10.5954 -61.3372 243° Southwest  Level Estimated
Fri 11:23:00 AM 10.5954 -61.3372 243° Southwest  Level Estimated
Fri 11:24:00 AM 10.5954 -61.3372 243° Southwest  Level Estimated
Fri 11:25:00 AM 10.5954 -61.3372 243° Southwest  Level Estimated
Fri 11:26:00 AM 10.5954 -61.3372 243° Southwest  Level Estimated

Login

Don't have an account? Register now (free) for customized features, flight alerts, and more!